Benton, Illinois
Current Conditions -  °F | °C
As of 7:52 AM on Sunday 25 Jan 2015 (Local Time) from KMWA Reporting Station
Light Rain Light Rain  
Wind Chill: 35°   Ceiling: 4200
Heat Index: 41°   Visibility: 7mi
Dew Point: 37°   Wind: 9mph
Humidity: 87%   Direction: 180°S
Pressure: 29.66"   Gusts: NA
Location:  38°N, 88.92°W
Report Text: KMWA 251352Z 18008KT 7SM -RA BKN042 OVC150 05/03 A2966
Loading
Personal Weather Stations






























Interactive Weather Map New forecast layout! Learn more

10-Day Weather Forecast

Advertisements
Track Severe Weather on mobile